createdAt,value
2023-05-25T00:01:44.115Z,8.75
2023-05-25T00:04:11.738Z,9.25
2023-05-25T00:06:41.160Z,8.73
2023-05-25T00:09:08.391Z,8.95
2023-05-25T00:11:35.531Z,10.82
2023-05-25T00:14:02.756Z,11.50
2023-05-25T00:16:29.955Z,8.90
2023-05-25T00:18:57.675Z,7.90
2023-05-25T00:21:25.832Z,9.43
2023-05-25T00:23:53.111Z,8.10
2023-05-25T00:26:20.090Z,9.65
2023-05-25T00:28:47.585Z,9.50
2023-05-25T00:31:14.586Z,8.98
2023-05-25T00:33:42.260Z,10.20
2023-05-25T00:36:09.409Z,11.35
2023-05-25T00:38:36.994Z,12.07
2023-05-25T00:41:06.172Z,10.52
2023-05-25T00:43:33.656Z,10.73
2023-05-25T00:46:01.113Z,10.95
2023-05-25T00:48:28.399Z,13.02
2023-05-25T00:50:58.082Z,12.25
2023-05-25T00:53:27.181Z,13.10
2023-05-25T00:56:04.674Z,14.90
2023-05-25T00:58:34.843Z,15.07
2023-05-25T01:01:03.984Z,11.32
2023-05-25T01:03:36.219Z,13.10
2023-05-25T01:06:04.818Z,12.55
2023-05-25T01:08:34.201Z,14.25
2023-05-25T01:11:03.424Z,14.07
2023-05-25T01:13:32.273Z,14.27
2023-05-25T01:15:59.360Z,13.23
2023-05-25T01:18:27.285Z,14.75
2023-05-25T01:21:03.502Z,17.50
2023-05-25T01:23:33.437Z,16.00
2023-05-25T01:26:03.267Z,15.07
2023-05-25T01:28:42.741Z,15.32
2023-05-25T01:31:09.828Z,14.52
2023-05-25T01:33:37.472Z,14.75
2023-05-25T01:36:05.024Z,14.80
2023-05-25T01:38:32.453Z,14.85
2023-05-25T01:40:59.484Z,14.18
2023-05-25T01:43:27.238Z,14.00
2023-05-25T01:46:14.995Z,14.40
2023-05-25T01:48:55.141Z,14.35
2023-05-25T01:51:37.184Z,16.20
2023-05-25T01:54:15.609Z,15.95
2023-05-25T01:56:46.797Z,17.77
2023-05-25T01:59:16.703Z,16.90
2023-05-25T02:01:44.042Z,17.67
2023-05-25T02:04:11.589Z,15.82
2023-05-25T02:06:38.876Z,17.35
2023-05-25T02:09:07.118Z,17.67
2023-05-25T02:11:34.058Z,20.40
2023-05-25T02:14:01.278Z,19.17
2023-05-25T02:16:30.097Z,19.77
2023-05-25T02:19:00.654Z,17.95
2023-05-25T02:21:28.266Z,20.42
2023-05-25T02:23:58.122Z,17.20
2023-05-25T02:26:25.501Z,20.70
2023-05-25T02:28:52.882Z,16.70
2023-05-25T02:31:19.949Z,19.77
2023-05-25T02:33:47.662Z,18.48
2023-05-25T02:36:14.678Z,17.13
2023-05-25T02:38:42.431Z,20.40
2023-05-25T02:41:09.464Z,19.45
2023-05-25T02:43:37.562Z,18.83
2023-05-25T02:46:04.666Z,19.73
2023-05-25T02:48:32.481Z,19.38
2023-05-25T02:50:59.567Z,17.98
2023-05-25T02:53:26.805Z,21.20
2023-05-25T02:55:54.064Z,22.70
2023-05-25T02:58:24.341Z,22.92
2023-05-25T03:01:18.250Z,21.83
2023-05-25T03:03:52.663Z,21.73
2023-05-25T03:06:23.054Z,21.25
2023-05-25T03:08:55.054Z,19.73
2023-05-25T03:11:22.830Z,21.42
2023-05-25T03:13:51.957Z,20.30
2023-05-25T03:16:23.403Z,20.92
2023-05-25T03:18:51.028Z,17.63
2023-05-25T03:21:18.048Z,19.38
2023-05-25T03:23:45.855Z,20.27
2023-05-25T03:26:12.905Z,17.88
2023-05-25T03:28:41.171Z,18.90
2023-05-25T03:31:08.265Z,18.92
2023-05-25T03:33:35.574Z,21.02
2023-05-25T03:36:07.794Z,16.38
2023-05-25T03:38:38.255Z,22.00
2023-05-25T03:41:05.510Z,17.67
2023-05-25T03:43:32.889Z,21.17
2023-05-25T03:46:00.182Z,19.38
2023-05-25T03:48:27.640Z,19.77
2023-05-25T03:50:54.700Z,23.50
2023-05-25T03:53:22.927Z,19.75
2023-05-25T03:55:52.364Z,18.88
2023-05-25T03:58:21.537Z,19.42
2023-05-25T04:00:51.804Z,21.80
2023-05-25T04:03:20.653Z,22.33
2023-05-25T04:05:47.877Z,18.90
2023-05-25T04:08:22.511Z,20.95
2023-05-25T04:10:49.521Z,19.70
2023-05-25T04:13:16.751Z,20.00
2023-05-25T04:15:43.972Z,22.33
2023-05-25T04:18:19.317Z,22.98
2023-05-25T04:20:47.951Z,25.98
2023-05-25T04:23:16.984Z,21.60
2023-05-25T04:25:45.698Z,20.25
2023-05-25T04:28:14.463Z,21.80
2023-05-25T04:30:57.066Z,20.92
2023-05-25T04:33:59.790Z,17.75
2023-05-25T04:36:34.848Z,20.73
2023-05-25T04:39:05.809Z,20.50
2023-05-25T04:41:36.220Z,20.48
2023-05-25T04:44:10.131Z,18.80
2023-05-25T04:46:48.043Z,19.33
2023-05-25T04:49:21.545Z,22.70
2023-05-25T04:51:48.586Z,22.30
2023-05-25T04:54:15.916Z,19.67
2023-05-25T04:56:43.528Z,22.27
2023-05-25T04:59:11.174Z,23.33
2023-05-25T05:01:41.243Z,19.67
2023-05-25T05:04:11.940Z,19.70
2023-05-25T05:06:39.590Z,21.38
2023-05-25T05:09:08.948Z,20.83
2023-05-25T05:11:35.974Z,22.25
2023-05-25T05:14:05.192Z,21.42
2023-05-25T05:16:35.221Z,19.15
2023-05-25T05:19:03.019Z,21.35
2023-05-25T05:21:30.812Z,20.63
2023-05-25T05:23:58.363Z,23.58
2023-05-25T05:26:25.522Z,24.48
2023-05-25T05:28:53.072Z,20.77
2023-05-25T05:31:21.742Z,20.45
2023-05-25T05:33:49.220Z,22.40
2023-05-25T05:36:17.351Z,22.23
2023-05-25T05:38:46.839Z,25.13
2023-05-25T05:41:14.468Z,23.23
2023-05-25T05:43:46.718Z,25.60
2023-05-25T05:46:13.859Z,22.95
2023-05-25T05:48:41.939Z,23.08
2023-05-25T05:51:10.005Z,22.92
2023-05-25T05:53:37.799Z,25.20
2023-05-25T05:56:05.928Z,23.70
2023-05-25T05:58:33.733Z,27.08
2023-05-25T06:01:02.034Z,24.75
2023-05-25T06:03:29.685Z,23.85
2023-05-25T06:05:57.016Z,24.48
2023-05-25T06:08:24.629Z,26.50
2023-05-25T06:10:52.224Z,22.05
2023-05-25T06:13:20.276Z,24.67
2023-05-25T06:15:48.098Z,25.40
2023-05-25T06:18:21.653Z,22.88
2023-05-25T06:20:48.932Z,27.83
2023-05-25T06:23:18.803Z,23.60
2023-05-25T06:25:47.086Z,24.38
2023-05-25T06:28:15.395Z,25.35
2023-05-25T06:30:42.478Z,24.48
2023-05-25T06:33:10.601Z,26.00
2023-05-25T06:35:37.808Z,27.52
2023-05-25T06:38:06.294Z,28.60
2023-05-25T06:40:33.393Z,25.50
2023-05-25T06:43:00.897Z,26.08
2023-05-25T06:45:41.363Z,26.42
2023-05-25T06:48:09.373Z,27.98
2023-05-25T06:50:36.478Z,29.70
2023-05-25T06:53:04.222Z,25.98
2023-05-25T06:55:31.489Z,30.92
2023-05-25T06:57:58.995Z,27.90
2023-05-25T07:00:26.703Z,28.70
2023-05-25T07:02:54.331Z,31.38
2023-05-25T07:05:22.093Z,30.85
2023-05-25T07:07:49.413Z,25.98
2023-05-25T07:10:16.483Z,24.90
2023-05-25T07:12:44.256Z,28.02
2023-05-25T07:15:11.473Z,27.50
2023-05-25T07:17:39.193Z,27.65
2023-05-25T07:20:06.818Z,25.45
2023-05-25T07:22:34.108Z,25.25
2023-05-25T07:25:01.067Z,25.20
2023-05-25T07:27:30.366Z,29.38
2023-05-25T07:29:57.293Z,28.70
2023-05-25T07:32:24.658Z,24.95
2023-05-25T07:34:51.617Z,26.00
2023-05-25T07:37:18.910Z,26.77
2023-05-25T07:39:45.916Z,28.83
2023-05-25T07:42:13.271Z,28.83
2023-05-25T07:44:40.221Z,30.95
2023-05-25T07:47:07.447Z,24.83
2023-05-25T07:49:35.124Z,25.85
2023-05-25T07:52:03.733Z,30.42
2023-05-25T07:54:30.985Z,28.20
2023-05-25T07:56:57.962Z,28.40
2023-05-25T07:59:26.255Z,24.40
2023-05-25T08:01:53.221Z,26.27
2023-05-25T08:04:20.794Z,28.13
2023-05-25T08:06:47.887Z,25.25
2023-05-25T08:09:15.134Z,33.85
2023-05-25T08:11:42.153Z,29.92
2023-05-25T08:14:09.869Z,27.85
2023-05-25T08:16:37.153Z,30.35
2023-05-25T08:19:04.450Z,34.80
2023-05-25T08:21:35.001Z,31.25
2023-05-25T08:24:04.281Z,33.05
2023-05-25T08:26:45.345Z,28.23
2023-05-25T08:29:19.627Z,29.52
2023-05-25T08:31:49.674Z,33.67
2023-05-25T08:34:17.212Z,32.22
2023-05-25T08:36:44.975Z,27.60
2023-05-25T08:39:12.373Z,29.15
2023-05-25T08:41:44.070Z,29.00
2023-05-25T08:44:11.679Z,31.38
2023-05-25T08:46:38.724Z,27.63
2023-05-25T08:49:11.156Z,28.63
2023-05-25T08:51:41.069Z,31.75
2023-05-25T08:54:12.613Z,32.75
2023-05-25T08:56:46.820Z,29.05
2023-05-25T08:59:32.748Z,29.35
2023-05-25T09:02:08.943Z,33.00
2023-05-25T09:04:36.708Z,31.33
2023-05-25T09:07:10.503Z,28.98
2023-05-25T09:09:39.715Z,31.75
2023-05-25T09:12:07.736Z,30.40
2023-05-25T09:14:36.210Z,30.92
2023-05-25T09:17:03.474Z,26.65
2023-05-25T09:19:30.860Z,30.77
2023-05-25T09:22:10.681Z,34.15
2023-05-25T09:24:44.453Z,26.23
2023-05-25T09:27:12.469Z,29.40
2023-05-25T09:29:39.777Z,32.72
2023-05-25T09:32:07.288Z,27.05
2023-05-25T09:39:42.752Z,29.38
2023-05-25T09:42:13.715Z,29.13
2023-05-25T09:44:42.745Z,25.83
2023-05-25T09:47:10.595Z,25.60
2023-05-25T09:49:39.214Z,22.30
2023-05-25T09:52:06.833Z,27.45
2023-05-25T09:54:33.837Z,35.53
2023-05-25T09:57:03.493Z,27.13
2023-05-25T09:59:31.147Z,34.25
2023-05-25T10:01:59.274Z,27.98
2023-05-25T10:04:26.363Z,30.13
2023-05-25T10:06:54.058Z,26.77
2023-05-25T10:09:21.701Z,33.75
2023-05-25T10:11:51.677Z,28.05
2023-05-25T10:14:28.000Z,29.92
2023-05-25T10:16:59.606Z,33.88
2023-05-25T10:19:43.313Z,29.17
2023-05-25T10:22:14.273Z,27.48
2023-05-25T10:24:57.328Z,25.45
2023-05-25T10:27:27.863Z,30.13
2023-05-25T10:29:59.989Z,27.88
2023-05-25T10:32:27.491Z,27.10
2023-05-25T10:34:56.994Z,33.15
2023-05-25T10:37:26.829Z,27.58
2023-05-25T10:39:56.008Z,25.23
2023-05-25T10:42:23.658Z,25.52
2023-05-25T10:44:50.900Z,21.25
2023-05-25T10:47:18.502Z,25.45
2023-05-25T10:49:57.868Z,23.75
2023-05-25T10:52:32.176Z,25.80
2023-05-25T10:55:02.050Z,23.40
2023-05-25T10:57:29.480Z,21.38
2023-05-25T11:00:01.794Z,22.80
2023-05-25T11:02:29.992Z,21.05
2023-05-25T11:05:27.933Z,24.77
2023-05-25T11:07:56.739Z,27.55
2023-05-25T11:10:53.467Z,23.73
2023-05-25T11:13:32.788Z,21.25
2023-05-25T11:16:22.837Z,22.40
2023-05-25T11:18:58.660Z,21.85
2023-05-25T11:21:28.569Z,20.67
2023-05-25T11:23:57.116Z,21.58
2023-05-25T11:26:26.597Z,24.08
2023-05-25T11:28:55.157Z,23.33
2023-05-25T11:31:29.247Z,21.17
2023-05-25T11:33:58.494Z,23.67
2023-05-25T11:36:25.943Z,21.80
2023-05-25T11:39:04.696Z,25.45
2023-05-25T11:41:36.748Z,25.73
2023-05-25T11:44:08.129Z,23.88
2023-05-25T11:46:35.228Z,22.63
2023-05-25T11:49:02.553Z,29.40
2023-05-25T11:51:30.711Z,22.85
2023-05-25T11:53:57.964Z,23.33
2023-05-25T11:56:35.019Z,20.88
2023-05-25T11:59:07.823Z,22.98
2023-05-25T12:01:34.785Z,22.50
2023-05-25T12:04:08.840Z,21.58
2023-05-25T12:06:39.108Z,22.98
2023-05-25T12:09:13.826Z,21.55
2023-05-25T12:11:45.370Z,22.52
2023-05-25T12:14:13.070Z,26.20
2023-05-25T12:16:41.897Z,23.67
2023-05-25T12:19:11.527Z,18.63
2023-05-25T12:21:40.605Z,24.63
2023-05-25T12:24:09.937Z,23.65
2023-05-25T12:26:47.245Z,21.15
2023-05-25T12:29:15.031Z,22.42
2023-05-25T12:31:42.321Z,20.85
2023-05-25T12:34:13.115Z,15.40
2023-05-25T12:36:47.894Z,13.48
2023-05-25T12:39:17.058Z,16.95
2023-05-25T12:41:51.250Z,14.65
2023-05-25T12:44:21.441Z,17.60
2023-05-25T12:46:53.131Z,16.42
2023-05-25T12:49:31.427Z,16.58
2023-05-25T12:51:59.782Z,18.92
2023-05-25T12:54:46.133Z,19.42
2023-05-25T12:57:14.873Z,17.88
2023-05-25T12:59:44.054Z,17.40
2023-05-25T13:02:11.817Z,18.00
2023-05-25T13:04:41.451Z,15.93
2023-05-25T13:07:09.342Z,18.17
2023-05-25T13:09:37.466Z,17.02
2023-05-25T13:12:05.025Z,16.95
2023-05-25T13:14:32.603Z,16.95
2023-05-25T13:16:59.723Z,14.65
2023-05-25T13:19:27.108Z,21.58
2023-05-25T13:21:55.911Z,15.30
2023-05-25T13:24:24.264Z,16.17
2023-05-25T13:26:51.474Z,15.75
2023-05-25T13:29:18.877Z,18.67
2023-05-25T13:31:46.908Z,21.90
2023-05-25T13:34:14.338Z,16.17
2023-05-25T13:36:41.728Z,16.48
2023-05-25T13:39:13.283Z,15.57
2023-05-25T13:41:41.242Z,15.48
2023-05-25T13:44:08.298Z,15.50
2023-05-25T13:46:37.712Z,14.98
2023-05-25T13:49:04.877Z,15.65
2023-05-25T13:51:35.486Z,14.70
2023-05-25T13:54:03.168Z,16.48
2023-05-25T13:56:30.588Z,16.38
2023-05-25T13:58:57.577Z,16.50
2023-05-25T14:01:28.530Z,16.23
2023-05-25T14:03:56.335Z,17.90
2023-05-25T14:06:23.815Z,17.33
2023-05-25T14:08:50.885Z,16.25
2023-05-25T14:11:21.868Z,16.10
2023-05-25T14:13:53.930Z,16.52
2023-05-25T14:16:21.363Z,14.80
2023-05-25T14:18:48.400Z,15.50
2023-05-25T14:21:16.328Z,15.25
2023-05-25T14:23:43.375Z,13.65
2023-05-25T14:26:11.120Z,14.98
2023-05-25T14:28:38.152Z,17.77
2023-05-25T14:31:06.327Z,15.35
2023-05-25T14:33:33.384Z,14.05
2023-05-25T14:36:00.665Z,12.82
2023-05-25T14:38:28.108Z,13.75
2023-05-25T14:40:55.318Z,17.45
2023-05-25T14:43:22.338Z,17.30
2023-05-25T14:45:49.642Z,15.48
2023-05-25T14:48:18.872Z,18.08
2023-05-25T14:50:46.121Z,16.52
2023-05-25T14:53:13.896Z,15.95
2023-05-25T14:55:41.866Z,13.88
2023-05-25T14:58:09.119Z,14.80
2023-05-25T15:00:36.587Z,15.73
2023-05-25T15:03:03.756Z,15.68
2023-05-25T15:05:31.184Z,17.02
2023-05-25T15:07:59.084Z,17.42
2023-05-25T15:10:26.434Z,17.27
2023-05-25T15:12:53.458Z,16.25
2023-05-25T15:15:20.804Z,14.75
2023-05-25T15:17:47.800Z,14.02
2023-05-25T15:20:15.188Z,14.30
2023-05-25T15:22:42.291Z,14.35
2023-05-25T15:25:09.615Z,15.55
2023-05-25T15:27:36.546Z,17.98
2023-05-25T15:30:07.276Z,14.52
2023-05-25T15:32:34.552Z,16.38
2023-05-25T15:35:01.968Z,15.55
2023-05-25T15:37:29.963Z,15.75
2023-05-25T15:39:57.283Z,16.35
2023-05-25T15:42:24.226Z,16.67
2023-05-25T15:44:51.582Z,14.85
2023-05-25T15:47:18.707Z,15.73
2023-05-25T15:49:46.392Z,16.98
2023-05-25T15:52:13.297Z,19.40
2023-05-25T15:54:40.614Z,16.55
2023-05-25T15:57:07.550Z,15.65
2023-05-25T15:59:34.944Z,16.45
2023-05-25T16:02:01.945Z,16.55
2023-05-25T16:04:29.359Z,15.68
2023-05-25T16:06:56.326Z,15.88
2023-05-25T16:09:23.585Z,15.43
2023-05-25T16:11:50.543Z,18.80
2023-05-25T16:14:18.055Z,15.55
2023-05-25T16:16:45.050Z,15.68
2023-05-25T16:19:13.978Z,12.32
2023-05-25T16:21:41.414Z,12.85
2023-05-25T16:24:08.771Z,13.50
2023-05-25T16:26:35.869Z,13.77
2023-05-25T16:29:03.647Z,16.85
2023-05-25T16:31:30.658Z,12.63
2023-05-25T16:33:58.049Z,13.80
2023-05-25T16:36:26.705Z,12.43
2023-05-25T16:38:54.270Z,15.48
2023-05-25T16:41:21.339Z,14.85
2023-05-25T16:43:48.668Z,17.00
2023-05-25T16:46:15.884Z,11.65
2023-05-25T16:48:43.131Z,14.30
2023-05-25T16:51:15.179Z,12.65
2023-05-25T16:53:43.595Z,12.05
2023-05-25T16:56:11.165Z,11.43
2023-05-25T16:58:38.611Z,11.85
2023-05-25T17:01:06.888Z,12.13
2023-05-25T17:03:34.475Z,14.25
2023-05-25T17:06:01.686Z,11.93
2023-05-25T17:08:28.972Z,11.45
2023-05-25T17:10:56.732Z,11.85
2023-05-25T17:13:24.066Z,11.02
2023-05-25T17:15:51.096Z,9.40
2023-05-25T17:18:18.452Z,10.40
2023-05-25T17:20:45.553Z,11.38
2023-05-25T17:23:13.099Z,10.63
2023-05-25T17:25:40.570Z,11.25
2023-05-25T17:28:08.494Z,10.85
2023-05-25T17:30:35.520Z,10.77
2023-05-25T17:33:02.891Z,14.60
2023-05-25T17:35:29.985Z,11.18
2023-05-25T17:37:57.420Z,10.57
2023-05-25T17:40:24.485Z,11.18
2023-05-25T17:42:51.730Z,12.50
2023-05-25T17:45:18.807Z,10.98
2023-05-25T17:47:46.196Z,10.57
2023-05-25T17:50:13.260Z,10.18
2023-05-25T17:52:40.968Z,9.80
2023-05-25T17:55:08.196Z,10.70
2023-05-25T17:57:35.659Z,7.72
2023-05-25T18:00:02.941Z,4.97
2023-05-25T18:02:40.330Z,7.82
2023-05-25T18:05:07.735Z,4.80
2023-05-25T18:07:34.984Z,5.30
2023-05-25T18:10:02.583Z,5.20
2023-05-25T18:12:29.939Z,4.93
2023-05-25T18:14:56.955Z,4.80
2023-05-25T18:17:24.199Z,6.40
2023-05-25T18:19:51.283Z,7.22
2023-05-25T18:22:18.661Z,8.07
2023-05-25T18:24:46.220Z,6.68
2023-05-25T18:27:13.508Z,9.32
2023-05-25T18:29:40.508Z,10.13
2023-05-25T18:32:07.876Z,7.43
2023-05-25T18:34:34.837Z,9.63
2023-05-25T18:37:02.166Z,10.95
2023-05-25T18:39:29.134Z,7.95
2023-05-25T18:41:56.551Z,8.73
2023-05-25T18:44:23.458Z,8.48
2023-05-25T18:46:52.196Z,7.50
2023-05-25T18:49:19.223Z,7.72
2023-05-25T18:51:46.645Z,8.48
2023-05-25T18:54:13.803Z,8.15
2023-05-25T18:56:41.397Z,8.75
2023-05-25T18:59:08.383Z,8.23
2023-05-25T19:01:35.706Z,7.22
2023-05-25T19:04:02.808Z,6.22
2023-05-25T19:06:31.331Z,9.57
2023-05-25T19:08:58.425Z,5.30
2023-05-25T19:11:26.069Z,8.15
2023-05-25T19:13:53.162Z,5.30
2023-05-25T19:16:20.778Z,7.05
2023-05-25T19:18:48.540Z,5.63
2023-05-25T19:21:16.101Z,10.85
2023-05-25T19:23:44.661Z,9.43
2023-05-25T19:26:11.962Z,8.90
2023-05-25T19:28:38.939Z,9.75
2023-05-25T19:31:07.193Z,8.40
2023-05-25T19:33:34.253Z,7.32
2023-05-25T19:36:01.871Z,8.52
2023-05-25T19:38:37.595Z,9.40
2023-05-25T19:41:08.365Z,8.45
2023-05-25T19:43:36.181Z,9.95
2023-05-25T19:46:03.866Z,8.68
2023-05-25T19:48:31.151Z,7.97
2023-05-25T19:50:58.635Z,8.60
2023-05-25T19:53:25.807Z,8.13
2023-05-25T19:55:53.087Z,9.73
2023-05-25T19:58:21.735Z,9.38
2023-05-25T20:00:48.958Z,8.23
2023-05-25T20:03:17.770Z,8.85
2023-05-25T20:05:45.387Z,10.70
2023-05-25T20:08:12.552Z,9.27
2023-05-25T20:10:39.879Z,10.10
2023-05-25T20:13:07.510Z,9.68
2023-05-25T20:15:35.172Z,9.43
2023-05-25T20:18:02.615Z,11.88
2023-05-25T20:20:30.023Z,8.30
2023-05-25T20:22:57.058Z,8.57
2023-05-25T20:25:24.446Z,10.77
2023-05-25T20:27:51.414Z,13.98
2023-05-25T20:30:18.684Z,14.27
2023-05-25T20:32:46.009Z,12.10
2023-05-25T20:35:13.729Z,12.43
2023-05-25T20:37:42.078Z,11.73
2023-05-25T20:40:09.559Z,12.35
2023-05-25T20:42:36.492Z,11.27
2023-05-25T20:45:04.878Z,11.85
2023-05-25T20:47:31.983Z,10.63
2023-05-25T20:49:59.344Z,10.63
2023-05-25T20:52:26.393Z,13.32
2023-05-25T20:54:53.615Z,10.80
2023-05-25T20:57:20.686Z,11.85
2023-05-25T20:59:48.955Z,13.50
2023-05-25T21:02:16.267Z,10.90
2023-05-25T21:04:43.720Z,11.93
2023-05-25T21:07:10.649Z,12.93
2023-05-25T21:09:38.244Z,13.32
2023-05-25T21:12:05.868Z,12.98
2023-05-25T21:14:33.628Z,11.18
2023-05-25T21:17:00.660Z,11.57
2023-05-25T21:19:27.959Z,13.13
2023-05-25T21:21:54.923Z,13.93
2023-05-25T21:24:22.218Z,17.10
2023-05-25T21:26:49.205Z,14.23
2023-05-25T21:29:16.574Z,14.15
2023-05-25T21:31:43.548Z,11.40
2023-05-25T21:34:10.946Z,13.65
2023-05-25T21:36:37.870Z,15.40
2023-05-25T21:39:05.218Z,15.35
2023-05-25T21:41:32.141Z,15.55
2023-05-25T21:43:59.446Z,22.02
2023-05-25T21:46:26.504Z,16.00
2023-05-25T21:48:53.852Z,15.68
2023-05-25T21:51:20.779Z,14.88
2023-05-25T21:53:48.150Z,16.35
2023-05-25T21:56:15.119Z,14.52
2023-05-25T21:58:42.411Z,16.83
2023-05-25T22:01:15.391Z,19.00
2023-05-25T22:03:42.962Z,15.75
2023-05-25T22:06:10.084Z,21.67
2023-05-25T22:08:37.344Z,18.02
2023-05-25T22:11:04.676Z,18.23
2023-05-25T22:13:31.954Z,15.77
2023-05-25T22:15:58.901Z,20.02
2023-05-25T22:18:26.107Z,16.33
2023-05-25T22:20:53.241Z,17.85
2023-05-25T22:23:20.644Z,15.88
2023-05-25T22:25:47.742Z,16.30
2023-05-25T22:28:15.143Z,17.20
2023-05-25T22:30:42.455Z,17.70
2023-05-25T22:33:09.902Z,21.38
2023-05-25T22:35:37.459Z,16.70
2023-05-25T22:38:04.751Z,21.73
2023-05-25T22:40:31.844Z,15.68
2023-05-25T22:42:59.202Z,16.55
2023-05-25T22:45:26.112Z,19.45
2023-05-25T22:47:53.492Z,21.65
2023-05-25T22:50:20.554Z,20.45
2023-05-25T22:52:47.799Z,19.45
2023-05-25T22:55:14.832Z,19.60
2023-05-25T22:57:42.112Z,20.60
2023-05-25T23:00:09.470Z,17.38
2023-05-25T23:02:36.986Z,21.08
2023-05-25T23:05:04.646Z,21.90
2023-05-25T23:07:32.329Z,20.58
2023-05-25T23:09:59.262Z,21.77
2023-05-25T23:12:26.631Z,20.67
2023-05-25T23:14:53.579Z,22.67
2023-05-25T23:17:21.828Z,21.67
2023-05-25T23:19:48.861Z,26.73
2023-05-25T23:22:16.131Z,27.38
2023-05-25T23:24:43.145Z,20.75
2023-05-25T23:27:10.523Z,23.98
2023-05-25T23:29:37.529Z,21.42
2023-05-25T23:32:05.180Z,19.85
2023-05-25T23:34:32.317Z,18.75
2023-05-25T23:36:59.635Z,21.02
2023-05-25T23:39:26.800Z,20.20
2023-05-25T23:41:54.006Z,16.00
2023-05-25T23:44:21.061Z,17.17
2023-05-25T23:46:48.629Z,19.90
2023-05-25T23:49:15.950Z,16.33
2023-05-25T23:51:43.284Z,18.92
2023-05-25T23:54:10.413Z,19.95
2023-05-25T23:56:37.612Z,18.90
2023-05-25T23:59:04.525Z,16.15
